createdAt,value
2022-09-11T00:09:43.773Z,8.5
2022-09-11T00:24:53.496Z,8.8
2022-09-11T00:40:03.253Z,8.4
2022-09-11T00:55:12.137Z,10.8
2022-09-11T01:10:21.380Z,10.6
2022-09-11T01:25:30.890Z,15.1
2022-09-11T01:40:40.476Z,20.3
2022-09-11T01:55:49.509Z,20.2
2022-09-11T02:10:58.839Z,24.3
2022-09-11T02:26:08.240Z,24.8
2022-09-11T02:41:17.755Z,24.6
2022-09-11T02:56:27.257Z,25.3
2022-09-11T03:11:36.806Z,22
2022-09-11T03:26:46.185Z,21.1
2022-09-11T03:41:55.610Z,22.4
2022-09-11T03:57:05.006Z,23.3
2022-09-11T04:12:14.543Z,21.5
2022-09-11T04:27:23.785Z,21.2
2022-09-11T04:42:33.312Z,25.9
2022-09-11T04:57:42.848Z,27.6
2022-09-11T05:12:52.160Z,27.7
2022-09-11T05:28:01.591Z,29
2022-09-11T05:43:11.290Z,28
2022-09-11T05:58:20.870Z,26.9
2022-09-11T06:13:30.340Z,26.1
2022-09-11T06:28:40.705Z,27.2
2022-09-11T06:43:50.262Z,27.6
2022-09-11T06:58:59.756Z,28
2022-09-11T07:14:09.472Z,28.8
2022-09-11T07:29:18.666Z,29.2
2022-09-11T07:44:28.338Z,27.2
2022-09-11T07:59:40.751Z,26.4
2022-09-11T08:14:50.391Z,23.5
2022-09-11T08:30:00.327Z,21.6
2022-09-11T08:45:09.638Z,18.2
2022-09-11T09:00:19.444Z,19.9
2022-09-11T09:15:29.790Z,19.2
2022-09-11T09:30:39.304Z,19.5
2022-09-11T09:45:49.371Z,20.3
2022-09-11T10:00:59.548Z,19
2022-09-11T10:16:09.776Z,15.6
2022-09-11T10:31:19.824Z,13.1
2022-09-11T10:46:29.598Z,10.6
2022-09-11T11:01:39.396Z,9.3
2022-09-11T11:16:49.617Z,8.2
2022-09-11T11:31:59.438Z,6.3
2022-09-11T11:47:08.833Z,6.3
2022-09-11T12:02:18.905Z,6.1
2022-09-11T12:17:29.432Z,4.9
2022-09-11T12:32:39.132Z,5.6
2022-09-11T12:47:48.684Z,6
2022-09-11T13:03:08.287Z,5.4
2022-09-11T13:18:18.647Z,4.7
2022-09-11T13:33:28.692Z,4.5
2022-09-11T13:48:41.534Z,4.2
2022-09-11T14:03:51.412Z,3.3
2022-09-11T14:19:00.707Z,2.8
2022-09-11T14:34:10.256Z,3.5
2022-09-11T14:49:20.188Z,3.2
2022-09-11T15:04:29.866Z,3
2022-09-11T15:19:41.240Z,3.6
2022-09-11T15:34:50.307Z,3.7
2022-09-11T15:50:00.922Z,3.4
2022-09-11T16:05:09.781Z,3.7
2022-09-11T16:20:19.063Z,4.8
2022-09-11T16:35:28.816Z,9.9
2022-09-11T16:50:41.728Z,9.7
2022-09-11T17:05:51.673Z,9.8
2022-09-11T17:21:00.895Z,9.8
2022-09-11T17:36:10.481Z,9.7
2022-09-11T17:51:19.557Z,10.8
2022-09-11T18:06:28.924Z,10.6
2022-09-11T18:21:41.318Z,13
2022-09-11T18:36:50.898Z,13
2022-09-11T18:52:00.745Z,11.4
2022-09-11T19:07:10.374Z,10.9
2022-09-11T19:22:19.486Z,11.6
2022-09-11T19:37:28.669Z,11.9
2022-09-11T19:52:41.677Z,11.8
2022-09-11T20:07:50.897Z,10.5
2022-09-11T20:23:01.082Z,11.5
2022-09-11T20:38:10.327Z,10.5
2022-09-11T20:53:20.617Z,12.8
2022-09-11T21:08:29.334Z,12.5
2022-09-11T21:23:38.488Z,11.8
2022-09-11T21:38:48.162Z,11.9
2022-09-11T21:53:58.506Z,12.7
2022-09-11T22:09:07.833Z,12
2022-09-11T22:24:17.737Z,13.4
2022-09-11T22:39:26.163Z,10.5
2022-09-11T22:54:35.309Z,12.3
2022-09-11T23:09:44.767Z,13
2022-09-11T23:24:54.419Z,11.3
2022-09-11T23:40:04.107Z,11
2022-09-11T23:55:13.748Z,10.8
